Time;durP1;ratioP1;P1;durP2;ratioP2;P2;SDS_P1;SDS_P2;PMS_P1;PMS_P2;Temp;Humidity;BMP_temperature;BMP_pressure;BME280_temperature;BME280_humidity;BME280_pressure;Samples;Min_cycle;Max_cycle;Signal;HPM_P1;HPM_P2
2022/06/14 00:00:53;;;;;;;18.88;3.83;;;13.10;99.90;;;;;;5053043;28;20075;-75
2022/06/14 00:03:39;;;;;;;16.52;4.47;;;13.10;99.90;;;;;;5053204;28;20052;-74
2022/06/14 00:06:29;;;;;;;14.35;4.38;;;13.10;99.90;;;;;;5054642;28;20060;-75
2022/06/14 00:08:55;;;;;;;14.68;4.35;;;13.00;99.90;;;;;;5052726;28;20045;-75
2022/06/14 00:11:24;;;;;;;14.38;3.85;;;12.90;99.90;;;;;;5054030;28;20048;-75
2022/06/14 00:13:51;;;;;;;18.77;3.70;;;12.90;99.90;;;;;;5054115;28;20124;-75
2022/06/14 00:16:18;;;;;;;18.98;3.63;;;12.90;99.90;;;;;;5053904;28;20406;-75
2022/06/14 00:18:44;;;;;;;19.08;4.22;;;12.80;99.90;;;;;;5052512;28;20045;-75
2022/06/14 00:21:10;;;;;;;14.43;3.38;;;12.80;99.90;;;;;;5052417;28;20048;-75
2022/06/14 00:23:36;;;;;;;25.33;3.50;;;12.80;99.90;;;;;;5052510;28;20115;-75
2022/06/14 00:26:02;;;;;;;19.50;3.50;;;12.80;99.90;;;;;;5053696;28;20064;-75
2022/06/14 00:28:30;;;;;;;17.48;4.72;;;12.80;99.90;;;;;;5053816;28;20097;-75
2022/06/14 00:31:00;;;;;;;14.95;3.40;;;12.80;99.90;;;;;;5052430;28;20053;-75
2022/06/14 00:33:26;;;;;;;18.98;4.45;;;12.80;99.90;;;;;;5052236;28;20540;-75
2022/06/14 00:35:59;;;;;;;15.75;4.30;;;12.70;99.90;;;;;;5052298;28;20500;-75
2022/06/14 00:38:25;;;;;;;10.90;3.40;;;12.70;99.90;;;;;;5053656;28;20045;-75
2022/06/14 00:40:57;;;;;;;12.63;3.60;;;12.70;99.90;;;;;;5053563;28;20044;-75
2022/06/14 00:43:24;;;;;;;14.90;3.67;;;12.70;99.90;;;;;;5063124;28;20052;-75
2022/06/14 00:45:50;;;;;;;19.30;3.88;;;12.70;99.90;;;;;;5055669;28;20302;-75
2022/06/14 00:48:27;;;;;;;11.18;3.90;;;12.70;99.90;;;;;;5054892;28;20392;-75
2022/06/14 00:51:00;;;;;;;15.27;4.35;;;12.80;99.90;;;;;;5055818;28;20098;-75
2022/06/14 00:53:32;;;;;;;18.45;3.50;;;12.80;99.90;;;;;;5073489;28;20576;-75
2022/06/14 00:56:06;;;;;;;17.73;3.88;;;12.80;99.90;;;;;;5073499;28;20119;-74
2022/06/14 00:58:37;;;;;;;18.05;3.85;;;12.80;99.90;;;;;;5055617;28;20135;-75
2022/06/14 01:01:09;;;;;;;14.55;3.60;;;12.80;99.90;;;;;;5055347;28;20369;-75
2022/06/14 01:03:39;;;;;;;14.10;3.55;;;12.80;99.90;;;;;;5055671;28;20127;-75
2022/06/14 01:06:36;;;;;;;20.88;3.72;;;12.80;99.90;;;;;;5073446;28;20087;-74
2022/06/14 01:09:25;;;;;;;12.10;3.83;;;12.80;99.90;;;;;;5073710;28;20124;-75
2022/06/14 01:12:22;;;;;;;17.50;3.47;;;12.80;99.90;;;;;;5055671;28;20053;-75
2022/06/14 01:14:57;;;;;;;15.63;3.70;;;12.80;99.90;;;;;;5042904;28;20057;-74
2022/06/14 01:17:23;;;;;;;23.98;3.90;;;12.80;99.90;;;;;;5073372;28;20071;-74
2022/06/14 01:19:48;;;;;;;18.23;3.80;;;12.80;99.90;;;;;;5055233;28;20049;-74
2022/06/14 01:22:14;;;;;;;12.70;3.20;;;12.80;99.90;;;;;;5055335;28;20048;-75
2022/06/14 01:24:42;;;;;;;19.55;4.40;;;12.80;99.90;;;;;;5073471;28;20153;-75
2022/06/14 01:27:11;;;;;;;21.10;3.30;;;12.80;99.90;;;;;;5073181;28;20123;-75
2022/06/14 01:29:39;;;;;;;21.45;4.28;;;12.80;99.90;;;;;;5055356;28;20048;-75
2022/06/14 01:32:09;;;;;;;12.75;3.38;;;12.80;99.90;;;;;;5055230;28;20056;-75
2022/06/14 01:34:39;;;;;;;17.00;3.40;;;12.80;99.90;;;;;;5073176;28;20102;-75
2022/06/14 01:37:06;;;;;;;23.02;4.93;;;12.70;99.90;;;;;;5055444;28;20056;-75
2022/06/14 01:39:32;;;;;;;11.35;3.45;;;12.80;99.90;;;;;;5073072;28;20056;-75
2022/06/14 01:42:25;;;;;;;16.98;4.63;;;12.70;99.90;;;;;;5073470;28;20081;-75
2022/06/14 01:45:06;;;;;;;11.30;3.27;;;12.70;99.90;;;;;;5055360;28;20049;-75
2022/06/14 01:47:58;;;;;;;18.00;4.00;;;12.70;99.90;;;;;;5055290;28;20454;-75
2022/06/14 01:53:47;;;;;;;22.20;3.70;;;12.70;99.90;;;;;;5072979;28;20287;-75
2022/06/14 01:56:19;;;;;;;14.73;3.88;;;12.60;99.90;;;;;;5055049;28;20048;-75
2022/06/14 01:59:03;;;;;;;11.85;3.78;;;12.60;99.90;;;;;;5072908;28;20051;-75
2022/06/14 02:01:38;;;;;;;17.00;3.47;;;12.50;99.90;;;;;;5058310;28;20174;-75
2022/06/14 02:07:11;;;;;;;17.52;5.20;;;12.50;99.90;;;;;;5058198;28;20407;-75
2022/06/14 02:09:56;;;;;;;18.73;4.35;;;12.40;99.90;;;;;;5076360;28;20049;-75
2022/06/14 02:12:50;;;;;;;17.15;3.92;;;12.30;99.90;;;;;;5058293;28;20503;-75
2022/06/14 02:15:42;;;;;;;25.02;5.00;;;12.20;99.90;;;;;;5057822;28;20070;-75
2022/06/14 02:18:31;;;;;;;18.92;4.47;;;12.10;99.90;;;;;;5030207;28;20046;-75
2022/06/14 02:21:10;;;;;;;19.42;5.03;;;12.10;99.90;;;;;;5058166;28;20048;-75
2022/06/14 02:23:47;;;;;;;16.90;4.43;;;12.00;99.90;;;;;;5075890;28;20045;-75
2022/06/14 02:26:22;;;;;;;24.33;4.55;;;11.90;99.90;;;;;;5058798;28;20495;-75
2022/06/14 02:28:53;;;;;;;22.95;4.95;;;11.90;99.90;;;;;;5058106;28;20041;-74
2022/06/14 02:31:31;;;;;;;14.52;4.28;;;11.80;99.90;;;;;;5057952;28;20075;-75
2022/06/14 02:34:05;;;;;;;13.20;4.43;;;11.70;99.90;;;;;;5058009;28;20053;-75
2022/06/14 02:36:46;;;;;;;16.42;4.85;;;11.70;99.90;;;;;;5058266;28;20040;-75
2022/06/14 02:39:17;;;;;;;15.93;5.05;;;11.70;99.90;;;;;;5075761;28;20052;-75
2022/06/14 02:41:52;;;;;;;16.25;5.07;;;11.60;99.90;;;;;;5075492;28;20366;-75
2022/06/14 02:44:25;;;;;;;17.73;4.60;;;11.60;99.90;;;;;;5057442;28;20084;-75
2022/06/14 02:47:19;;;;;;;17.63;4.22;;;11.60;99.90;;;;;;5057839;28;20040;-75
2022/06/14 02:50:13;;;;;;;16.50;4.75;;;11.50;99.90;;;;;;5057624;28;20136;-75
2022/06/14 02:52:53;;;;;;;18.33;4.68;;;11.50;99.90;;;;;;5075513;28;20051;-75
2022/06/14 02:55:25;;;;;;;17.55;4.15;;;11.50;99.90;;;;;;5057729;28;20126;-74
2022/06/14 02:58:10;;;;;;;;;;;11.50;99.90;;;;;;5057728;28;20084;-74
2022/06/14 03:00:38;;;;;;;21.17;4.80;;;11.40;99.90;;;;;;5074921;28;20291;-75
2022/06/14 03:03:13;;;;;;;18.90;5.00;;;11.40;99.90;;;;;;5056814;28;20052;-75
2022/06/14 03:06:05;;;;;;;18.10;4.72;;;11.40;99.90;;;;;;5056204;28;20381;-75
2022/06/14 03:08:42;;;;;;;22.10;4.10;;;11.40;99.90;;;;;;5075140;28;20182;-75
2022/06/14 03:11:42;;;;;;;15.13;4.63;;;11.40;99.90;;;;;;5056519;28;20109;-75
2022/06/14 03:14:36;;;;;;;18.50;4.93;;;11.40;99.90;;;;;;5075023;28;20128;-75
2022/06/14 03:17:19;;;;;;;20.77;4.55;;;11.40;99.90;;;;;;5056979;28;20082;-75
2022/06/14 03:19:51;;;;;;;18.15;5.30;;;11.40;99.90;;;;;;5074975;28;20076;-75
2022/06/14 03:22:26;;;;;;;20.23;4.93;;;11.40;99.90;;;;;;5056732;28;20051;-75
2022/06/14 03:25:12;;;;;;;22.08;5.20;;;11.30;99.90;;;;;;5074837;28;20037;-74
2022/06/14 03:28:01;;;;;;;15.98;4.45;;;11.30;99.90;;;;;;5056686;28;20080;-75
2022/06/14 03:30:42;;;;;;;23.60;5.63;;;11.40;99.90;;;;;;5056889;28;20056;-75
2022/06/14 03:33:24;;;;;;;20.27;4.90;;;11.30;99.90;;;;;;5056839;28;20396;-75
2022/06/14 03:35:53;;;;;;;20.85;4.93;;;11.30;99.90;;;;;;5056533;28;20037;-75
2022/06/14 03:38:59;;;;;;;21.42;5.13;;;11.20;99.90;;;;;;5056513;28;20487;-75
2022/06/14 03:41:29;;;;;;;27.52;6.00;;;11.30;99.90;;;;;;5012612;28;20052;-75
2022/06/14 03:43:58;;;;;;;18.23;4.78;;;11.20;99.90;;;;;;5065702;28;20063;-75
2022/06/14 03:46:35;;;;;;;17.85;5.57;;;11.20;99.90;;;;;;5074403;28;20113;-75
2022/06/14 03:49:23;;;;;;;20.48;5.05;;;11.20;99.90;;;;;;5056758;28;20048;-75
2022/06/14 03:52:39;;;;;;;19.90;5.15;;;11.20;99.90;;;;;;5056286;28;20052;-75
2022/06/14 03:55:26;;;;;;;22.42;5.82;;;11.20;99.90;;;;;;5048014;28;20410;-75
2022/06/14 03:58:17;;;;;;;21.17;5.25;;;11.20;99.90;;;;;;5056055;28;20190;-75
2022/06/14 04:00:43;;;;;;;15.77;5.22;;;11.30;99.90;;;;;;5056330;28;20105;-75
2022/06/14 04:03:27;;;;;;;19.80;5.15;;;11.30;99.90;;;;;;5055956;28;20044;-75
2022/06/14 04:05:55;;;;;;;16.58;5.07;;;11.40;99.90;;;;;;5073918;28;20055;-75
2022/06/14 04:08:27;;;;;;;17.25;5.30;;;11.40;99.90;;;;;;5056204;28;20048;-75
2022/06/14 04:11:19;;;;;;;13.20;5.20;;;11.40;99.90;;;;;;5073988;28;20049;-75
2022/06/14 04:14:12;;;;;;;28.05;6.55;;;11.50;99.90;;;;;;5056066;28;20142;-75
2022/06/14 04:16:48;;;;;;;21.92;6.35;;;11.50;99.90;;;;;;5056090;28;20500;-75
2022/06/14 04:19:33;;;;;;;22.60;6.30;;;11.60;99.90;;;;;;5073953;28;20037;-75
2022/06/14 04:22:29;;;;;;;18.75;6.53;;;11.60;99.90;;;;;;5055611;28;20496;-75
2022/06/14 04:25:08;;;;;;;22.67;7.78;;;11.70;99.90;;;;;;5073812;28;20067;-75
2022/06/14 04:28:10;;;;;;;19.77;6.70;;;11.80;99.90;;;;;;5073589;28;20070;-75
2022/06/14 04:31:00;;;;;;;22.95;6.90;;;11.80;99.90;;;;;;5059890;28;20048;-75
2022/06/14 04:33:35;;;;;;;25.95;7.35;;;11.90;99.90;;;;;;5073408;28;20437;-75
2022/06/14 04:36:16;;;;;;;24.10;6.20;;;12.00;99.90;;;;;;5055487;28;20052;-75
2022/06/14 04:38:56;;;;;;;22.77;7.32;;;12.00;99.90;;;;;;5055770;28;20053;-75
2022/06/14 04:41:29;;;;;;;28.50;6.88;;;12.10;99.90;;;;;;5073604;28;20400;-75
2022/06/14 04:44:09;;;;;;;23.55;6.45;;;12.20;99.90;;;;;;5055323;28;20122;-75
2022/06/14 04:46:43;;;;;;;22.00;6.53;;;12.30;99.90;;;;;;5073646;28;20179;-75
2022/06/14 04:49:15;;;;;;;27.05;7.05;;;12.40;99.90;;;;;;5073538;28;20036;-75
2022/06/14 04:52:15;;;;;;;20.02;5.70;;;12.40;99.90;;;;;;5073596;28;20063;-75
2022/06/14 04:55:00;;;;;;;22.75;5.55;;;12.50;99.90;;;;;;5070204;28;20049;-75
2022/06/14 04:57:44;;;;;;;22.63;6.07;;;12.50;99.90;;;;;;5055267;28;20072;-75
2022/06/14 05:00:17;;;;;;;21.33;5.95;;;12.70;99.90;;;;;;5073521;28;20105;-75
2022/06/14 05:03:20;;;;;;;20.02;6.00;;;12.80;99.90;;;;;;5055302;28;20048;-75
2022/06/14 05:05:56;;;;;;;19.13;6.00;;;13.00;99.90;;;;;;5055167;28;20404;-75
2022/06/14 05:08:31;;;;;;;26.25;6.35;;;13.20;99.90;;;;;;5073451;28;20115;-75
2022/06/14 05:11:15;;;;;;;18.40;6.72;;;13.20;99.90;;;;;;5055472;28;20465;-75
2022/06/14 05:13:52;;;;;;;21.40;6.68;;;13.40;99.90;;;;;;5073319;28;20052;-75
2022/06/14 05:16:28;;;;;;;25.92;6.80;;;13.50;99.90;;;;;;5073404;28;20442;-75
2022/06/14 05:19:00;;;;;;;28.30;7.03;;;13.50;99.90;;;;;;5073364;28;20045;-75
2022/06/14 05:21:32;;;;;;;26.63;7.72;;;13.50;99.90;;;;;;5073051;28;20051;-75
2022/06/14 05:23:59;;;;;;;20.67;6.90;;;13.60;99.90;;;;;;5055480;28;20557;-75
2022/06/14 05:26:59;;;;;;;21.67;6.93;;;13.70;99.90;;;;;;5073003;28;20052;-75
2022/06/14 05:29:34;;;;;;;27.40;6.57;;;13.70;99.90;;;;;;5073278;28;20086;-75
2022/06/14 05:32:09;;;;;;;22.10;6.55;;;13.80;99.90;;;;;;5055205;28;20102;-75
2022/06/14 05:34:50;;;;;;;27.65;6.75;;;13.80;99.90;;;;;;5055969;28;20051;-75
2022/06/14 05:37:36;;;;;;;20.95;5.72;;;13.90;99.90;;;;;;5058749;28;20059;-75
2022/06/14 05:40:17;;;;;;;22.25;6.47;;;14.00;99.90;;;;;;5076797;28;20049;-75
2022/06/14 05:42:51;;;;;;;29.05;6.70;;;14.00;99.90;;;;;;5058550;28;20577;-75
2022/06/14 05:45:18;;;;;;;20.52;6.63;;;14.10;99.90;;;;;;5058743;28;20052;-76
2022/06/14 05:47:51;;;;;;;18.75;5.80;;;14.10;99.90;;;;;;5076443;28;20048;-75
2022/06/14 05:50:22;;;;;;;22.05;6.40;;;14.10;99.90;;;;;;5076550;28;20369;-76
2022/06/14 05:53:03;;;;;;;24.38;6.57;;;14.20;99.90;;;;;;5076449;28;20086;-76
2022/06/14 05:55:38;;;;;;;30.75;6.47;;;14.30;99.90;;;;;;5058415;28;20083;-76
2022/06/14 05:58:14;;;;;;;21.00;5.38;;;14.30;99.90;;;;;;5058638;28;20048;-77
2022/06/14 06:00:48;;;;;;;18.85;5.68;;;14.40;99.90;;;;;;5058332;28;20480;-76
2022/06/14 06:03:32;;;;;;;24.10;5.93;;;14.50;99.90;;;;;;5076390;28;20055;-75
2022/06/14 06:06:10;;;;;;;18.27;6.03;;;14.50;99.90;;;;;;5071669;28;20491;-75
2022/06/14 06:08:41;;;;;;;24.90;5.22;;;14.60;99.90;;;;;;5047101;28;20053;-75
2022/06/14 06:11:13;;;;;;;24.05;5.93;;;14.70;99.90;;;;;;5055956;28;20049;-76
2022/06/14 06:13:50;;;;;;;22.45;5.35;;;14.70;99.90;;;;;;5055849;28;20386;-75
2022/06/14 06:16:37;;;;;;;27.38;5.70;;;14.80;99.90;;;;;;5056095;28;20064;-75
2022/06/14 06:19:22;;;;;;;18.58;4.50;;;14.90;99.90;;;;;;5038185;28;20061;-75
2022/06/14 06:22:06;;;;;;;15.18;4.40;;;15.00;99.90;;;;;;5037943;28;20053;-75
2022/06/14 06:24:46;;;;;;;16.05;4.57;;;15.30;99.90;;;;;;5037892;28;20049;-74
2022/06/14 06:27:12;;;;;;;20.13;5.32;;;15.50;99.90;;;;;;5055834;28;20081;-75
2022/06/14 06:29:49;;;;;;;19.85;5.57;;;15.50;99.90;;;;;;5055813;28;20055;-76
2022/06/14 06:32:17;;;;;;;17.20;4.65;;;15.50;99.90;;;;;;5037649;28;20086;-75
2022/06/14 06:34:42;;;;;;;16.42;4.78;;;15.60;99.90;;;;;;5055594;28;20059;-75
2022/06/14 06:37:21;;;;;;;13.20;4.22;;;15.70;99.90;;;;;;5055429;28;20037;-75
2022/06/14 06:39:58;;;;;;;17.63;4.65;;;15.90;99.90;;;;;;5055560;28;20041;-75
2022/06/14 06:42:45;;;;;;;16.48;4.55;;;16.00;99.90;;;;;;5055119;28;20505;-75
2022/06/14 06:45:17;;;;;;;16.60;5.47;;;16.30;99.90;;;;;;5055723;28;20037;-75
2022/06/14 06:47:56;;;;;;;16.95;4.78;;;16.50;99.90;;;;;;5054390;28;20041;-75
2022/06/14 06:50:38;;;;;;;16.55;5.45;;;16.80;99.90;;;;;;5037496;28;20040;-75
2022/06/14 06:53:20;;;;;;;16.55;5.65;;;17.10;99.90;;;;;;5055953;28;20094;-75
2022/06/14 06:55:59;;;;;;;11.52;4.45;;;17.30;99.90;;;;;;5055309;28;20472;-75
2022/06/14 06:58:36;;;;;;;15.27;4.93;;;17.60;99.90;;;;;;5037293;28;20260;-76
2022/06/14 07:01:12;;;;;;;14.50;4.43;;;17.60;99.90;;;;;;5055480;28;20120;-75
2022/06/14 07:03:49;;;;;;;16.48;4.80;;;17.80;99.90;;;;;;5055241;28;20550;-75
2022/06/14 07:06:40;;;;;;;14.55;4.22;;;18.00;99.90;;;;;;5055130;28;20041;-75
2022/06/14 07:09:25;;;;;;;18.80;5.13;;;18.20;99.90;;;;;;5032704;28;20534;-76
2022/06/14 07:12:04;;;;;;;14.65;4.38;;;18.40;99.90;;;;;;5037187;28;20055;-76
2022/06/14 07:14:53;;;;;;;14.50;5.07;;;18.40;99.90;;;;;;5037350;28;20049;-75
2022/06/14 07:17:32;;;;;;;13.18;4.78;;;17.90;99.90;;;;;;5055071;28;20068;-75
2022/06/14 07:20:12;;;;;;;12.13;4.75;;;17.70;99.90;;;;;;5055025;28;20037;-76
2022/06/14 07:22:46;;;;;;;16.48;5.65;;;17.50;99.90;;;;;;5036851;28;20044;-76
2022/06/14 07:25:34;;;;;;;18.02;5.55;;;17.50;99.90;;;;;;5053791;28;20124;-75
2022/06/14 07:28:07;;;;;;;11.93;4.72;;;17.50;99.90;;;;;;5047834;28;20057;-76
2022/06/14 07:30:44;;;;;;;23.02;4.82;;;17.50;99.90;;;;;;5054724;28;20041;-76
2022/06/14 07:33:10;;;;;;;11.63;4.32;;;17.70;99.90;;;;;;5054854;28;20047;-75
2022/06/14 07:35:48;;;;;;;12.77;4.30;;;17.90;99.90;;;;;;5036835;28;20426;-76
2022/06/14 07:38:36;;;;;;;11.05;4.25;;;17.90;99.90;;;;;;5054504;28;20057;-75
2022/06/14 07:41:30;;;;;;;15.40;4.47;;;18.00;99.90;;;;;;5054346;28;20183;-75
2022/06/14 07:43:58;;;;;;;12.75;4.63;;;18.30;99.90;;;;;;5036518;28;20061;-76
2022/06/14 07:46:48;;;;;;;16.23;4.75;;;18.50;99.90;;;;;;5036590;28;20041;-76
2022/06/14 07:49:39;;;;;;;10.48;4.15;;;18.50;99.90;;;;;;5026211;28;20053;-75
2022/06/14 07:52:17;;;;;;;16.45;4.82;;;18.60;99.90;;;;;;5046816;28;20053;-76
2022/06/14 07:54:47;;;;;;;12.65;4.53;;;18.60;99.90;;;;;;5054366;28;20041;-75
2022/06/14 07:57:22;;;;;;;13.90;4.57;;;18.70;99.90;;;;;;5036007;28;20053;-75
2022/06/14 07:59:57;;;;;;;21.70;5.10;;;18.90;99.90;;;;;;5054245;28;20033;-76
2022/06/14 08:02:31;;;;;;;12.80;4.55;;;19.10;99.90;;;;;;5036343;28;20045;-75
2022/06/14 08:05:15;;;;;;;12.18;4.45;;;19.10;99.90;;;;;;5054174;28;20064;-75
2022/06/14 08:07:43;;;;;;;15.52;4.47;;;19.20;99.90;;;;;;5036126;28;20057;-75
2022/06/14 08:10:14;;;;;;;17.38;4.65;;;19.20;99.90;;;;;;5035871;28;20153;-75
2022/06/14 08:12:51;;;;;;;13.82;4.55;;;19.20;99.90;;;;;;5054088;28;20055;-75
2022/06/14 08:15:25;;;;;;;10.82;4.45;;;19.30;99.90;;;;;;5035956;28;20163;-75
2022/06/14 08:18:20;;;;;;;15.35;4.70;;;19.50;99.90;;;;;;5053970;28;20048;-75
2022/06/14 08:20:51;;;;;;;10.25;4.28;;;19.70;99.90;;;;;;5045359;28;20064;-75
2022/06/14 08:23:43;;;;;;;12.35;4.15;;;20.00;99.90;;;;;;5053627;28;20120;-75
2022/06/14 08:26:15;;;;;;;12.07;4.83;;;19.80;99.90;;;;;;5036061;28;20061;-75
2022/06/14 08:28:56;;;;;;;8.00;4.20;;;20.20;99.90;;;;;;5053776;28;20041;-75
2022/06/14 08:32:01;;;;;;;7.60;3.92;;;20.30;99.90;;;;;;5035897;28;20056;-76
2022/06/14 08:34:52;;;;;;;15.77;4.28;;;20.40;99.90;;;;;;5011793;28;20049;-75
2022/06/14 08:37:56;;;;;;;9.88;4.03;;;20.50;99.90;;;;;;5035257;28;20084;-76
2022/06/14 08:40:45;;;;;;;14.77;4.53;;;20.50;99.90;;;;;;5011738;28;20120;-75
2022/06/14 08:43:14;;;;;;;13.10;4.88;;;20.40;99.90;;;;;;5051056;28;20057;-76
2022/06/14 08:46:12;;;;;;;17.38;4.55;;;20.50;99.90;;;;;;5053266;28;20048;-76
2022/06/14 08:48:48;;;;;;;16.65;4.80;;;20.40;99.90;;;;;;5053564;28;20037;-76
2022/06/14 08:51:21;;;;;;;12.10;4.05;;;20.60;99.90;;;;;;5035470;28;20437;-76
2022/06/14 08:53:55;;;;;;;11.88;4.65;;;20.90;99.90;;;;;;5053388;28;20401;-76
2022/06/14 08:56:46;;;;;;;11.43;4.38;;;20.90;99.90;;;;;;5035671;28;20045;-76
2022/06/14 08:59:32;;;;;;;11.38;4.25;;;20.70;99.90;;;;;;5053324;28;20056;-75
2022/06/14 09:02:36;;;;;;;17.73;5.43;;;20.50;99.90;;;;;;5035265;28;20078;-75
2022/06/14 09:05:09;;;;;;;14.50;4.85;;;20.00;99.90;;;;;;5035374;28;20106;-76
2022/06/14 09:08:02;;;;;;;12.30;4.78;;;19.80;99.90;;;;;;5035256;28;20075;-76
2022/06/14 09:10:52;;;;;;;10.80;4.43;;;19.70;99.90;;;;;;5055696;28;20052;-75
2022/06/14 09:13:36;;;;;;;11.90;5.15;;;19.50;99.90;;;;;;5057488;28;20067;-75
2022/06/14 09:16:23;;;;;;;13.40;4.70;;;19.40;99.90;;;;;;5039459;28;20052;-75
2022/06/14 09:18:55;;;;;;;20.30;5.60;;;19.30;99.90;;;;;;5039460;28;20041;-76
2022/06/14 09:21:47;;;;;;;15.57;4.75;;;19.30;99.90;;;;;;5039396;28;20049;-75
2022/06/14 09:24:43;;;;;;;8.50;4.10;;;19.10;99.90;;;;;;5057181;28;20045;-76
2022/06/14 09:27:24;;;;;;;17.55;4.60;;;19.10;99.90;;;;;;5039217;28;20057;-76
2022/06/14 09:30:27;;;;;;;12.75;4.20;;;18.90;99.90;;;;;;5039150;28;20048;-76
2022/06/14 09:33:23;;;;;;;10.30;4.45;;;18.80;99.90;;;;;;5039164;28;20373;-76
2022/06/14 09:36:22;;;;;;;13.48;4.25;;;18.60;99.90;;;;;;5057050;28;20098;-76
2022/06/14 09:39:09;;;;;;;11.65;3.80;;;18.30;99.90;;;;;;5039169;28;20048;-75
2022/06/14 09:42:06;;;;;;;12.27;4.70;;;18.30;99.90;;;;;;5056675;28;20091;-75
2022/06/14 09:45:06;;;;;;;14.68;4.65;;;18.30;99.90;;;;;;5056419;28;20059;-75
2022/06/14 09:48:09;;;;;;;12.45;3.95;;;18.20;99.90;;;;;;5022747;28;20057;-76
2022/06/14 09:50:58;;;;;;;8.73;4.35;;;18.30;99.90;;;;;;5056760;28;20044;-75
2022/06/14 09:53:45;;;;;;;16.17;3.75;;;18.30;99.90;;;;;;5038695;28;20055;-75
2022/06/14 09:56:26;;;;;;;12.95;3.97;;;18.30;99.90;;;;;;5056682;28;20102;-75
2022/06/14 09:59:02;;;;;;;11.35;3.78;;;18.30;99.90;;;;;;5056445;28;20049;-75
2022/06/14 10:01:47;;;;;;;8.50;4.25;;;18.40;99.90;;;;;;5056451;28;20037;-75
2022/06/14 10:04:30;;;;;;;10.52;3.70;;;18.40;99.90;;;;;;5038899;28;20477;-75
2022/06/14 10:07:29;;;;;;;7.88;3.75;;;18.40;99.90;;;;;;5056422;28;20095;-75
2022/06/14 10:10:13;;;;;;;14.25;4.20;;;18.50;99.90;;;;;;5056161;28;20045;-75
2022/06/14 10:13:00;;;;;;;13.52;4.18;;;18.60;99.90;;;;;;5038422;28;20044;-75
2022/06/14 10:15:53;;;;;;;8.13;3.70;;;18.80;99.90;;;;;;5038466;28;20509;-75
2022/06/14 10:18:40;;;;;;;11.25;4.55;;;18.80;99.90;;;;;;5056185;28;20051;-76
2022/06/14 10:21:28;;;;;;;11.15;4.38;;;18.90;99.90;;;;;;5038013;28;20049;-75
2022/06/14 10:24:14;;;;;;;9.23;3.35;;;19.00;99.90;;;;;;5056053;28;20102;-76
2022/06/14 10:30:27;;;;;;;14.88;3.25;;;19.10;99.90;;;;;;5055783;28;20059;-75
2022/06/14 10:33:01;;;;;;;9.55;2.75;;;19.00;99.90;;;;;;5055694;28;20400;-76
2022/06/14 10:35:51;;;;;;;5.93;2.20;;;19.00;99.90;;;;;;5037866;28;20098;-75
2022/06/14 10:38:32;;;;;;;6.35;2.80;;;19.10;99.90;;;;;;5055752;28;20053;-76
2022/06/14 10:41:25;;;;;;;7.60;3.33;;;19.10;99.90;;;;;;5037752;28;20052;-76
2022/06/14 10:43:55;;;;;;;9.35;3.85;;;19.10;99.90;;;;;;5037617;28;20493;-76
2022/06/14 10:46:28;;;;;;;11.18;4.07;;;19.10;99.90;;;;;;5037571;28;20049;-75
2022/06/14 10:49:21;;;;;;;14.93;4.07;;;19.20;99.90;;;;;;5055526;28;20055;-76
2022/06/14 10:52:16;;;;;;;8.43;4.88;;;19.20;99.90;;;;;;5037700;28;20064;-75
2022/06/14 10:55:02;;;;;;;11.07;3.95;;;19.20;99.90;;;;;;5037848;28;20044;-76
2022/06/14 10:57:52;;;;;;;16.08;4.25;;;19.20;99.90;;;;;;5055437;28;20049;-76
2022/06/14 11:00:35;;;;;;;10.30;4.07;;;19.20;99.90;;;;;;5055401;28;20128;-75
2022/06/14 11:03:22;;;;;;;10.57;4.53;;;18.90;99.90;;;;;;5037367;28;20511;-76
2022/06/14 11:06:29;;;;;;;16.88;4.85;;;18.90;99.90;;;;;;5037405;28;20041;-75
2022/06/14 11:09:20;;;;;;;11.20;3.83;;;18.90;99.90;;;;;;5017831;28;20065;-76
2022/06/14 11:12:01;;;;;;;15.43;5.32;;;19.10;99.90;;;;;;5055335;28;20040;-76
2022/06/14 11:14:51;;;;;;;9.02;4.25;;;19.20;99.90;;;;;;5055105;28;20550;-76
2022/06/14 11:17:22;;;;;;;8.88;4.10;;;19.30;99.90;;;;;;5037074;28;20052;-76
2022/06/14 11:20:06;;;;;;;12.30;4.38;;;19.60;99.90;;;;;;5055090;28;20044;-75
2022/06/14 11:23:13;;;;;;;11.82;4.05;;;19.80;99.90;;;;;;5037042;28;20049;-75
2022/06/14 11:25:44;;;;;;;13.13;4.35;;;20.00;99.90;;;;;;5037099;28;20045;-75
2022/06/14 11:28:36;;;;;;;11.90;4.30;;;20.20;99.90;;;;;;5054893;28;20068;-76
2022/06/14 11:31:29;;;;;;;18.17;4.60;;;20.10;99.90;;;;;;5054763;28;20049;-76
2022/06/14 11:34:09;;;;;;;10.90;4.50;;;19.90;99.90;;;;;;5054173;28;20064;-76
2022/06/14 11:37:02;;;;;;;12.18;4.13;;;19.80;99.90;;;;;;5054460;28;20484;-76
2022/06/14 11:39:48;;;;;;;9.68;4.03;;;19.70;99.90;;;;;;5054714;28;20069;-76
2022/06/14 11:42:30;;;;;;;11.93;5.35;;;19.60;99.90;;;;;;5054548;28;20103;-75
2022/06/14 11:45:07;;;;;;;14.93;4.80;;;19.50;99.90;;;;;;5054519;28;20083;-76
2022/06/14 11:48:00;;;;;;;13.55;4.78;;;19.40;99.90;;;;;;5054509;28;20044;-76
2022/06/14 11:50:28;;;;;;;14.88;4.80;;;19.30;99.90;;;;;;5054238;28;20382;-76
2022/06/14 11:53:16;;;;;;;12.32;4.25;;;19.30;99.90;;;;;;5036357;28;20124;-76
2022/06/14 11:56:05;;;;;;;10.57;4.90;;;19.20;99.90;;;;;;5054415;28;20052;-76
2022/06/14 11:59:11;;;;;;;10.57;4.32;;;19.10;99.90;;;;;;5036169;28;20041;-76
2022/06/14 12:02:14;;;;;;;11.13;4.43;;;19.00;99.90;;;;;;5054201;28;20045;-76
2022/06/14 12:05:12;;;;;;;10.82;4.65;;;19.00;99.90;;;;;;5054169;28;20124;-75
2022/06/14 12:07:46;;;;;;;14.65;4.82;;;18.90;99.90;;;;;;5036048;28;20064;-75
2022/06/14 12:10:21;;;;;;;16.33;5.13;;;18.80;99.90;;;;;;5054111;28;20051;-75
2022/06/14 12:13:18;;;;;;;16.27;5.15;;;18.70;99.90;;;;;;5035982;28;20055;-75
2022/06/14 12:15:58;;;;;;;8.95;5.07;;;18.60;99.90;;;;;;5053990;28;20182;-75
2022/06/14 12:18:29;;;;;;;12.52;5.20;;;18.60;99.90;;;;;;5053723;28;20603;-75
2022/06/14 12:21:07;;;;;;;11.48;5.70;;;18.70;99.90;;;;;;5053708;28;20511;-75
2022/06/14 12:23:39;;;;;;;15.20;5.63;;;18.60;99.90;;;;;;5053450;28;20049;-75
2022/06/14 12:29:00;;;;;;;15.98;4.72;;;18.40;99.90;;;;;;5053707;28;19946;-75
2022/06/14 12:31:50;;;;;;;12.90;5.45;;;18.40;99.90;;;;;;5035708;28;20056;-76
2022/06/14 12:34:29;;;;;;;12.32;5.28;;;18.30;99.90;;;;;;5054075;28;20098;-75
2022/06/14 12:37:04;;;;;;;16.30;5.72;;;18.30;99.90;;;;;;5053633;28;20091;-75
2022/06/14 12:39:35;;;;;;;16.80;5.90;;;18.20;99.90;;;;;;5053449;28;20053;-75
2022/06/14 12:42:15;;;;;;;13.82;5.10;;;18.20;99.90;;;;;;5053585;28;20049;-75
2022/06/14 12:44:50;;;;;;;19.20;5.82;;;18.20;99.90;;;;;;5053575;28;20045;-76
2022/06/14 12:47:44;;;;;;;16.75;5.18;;;18.30;99.90;;;;;;5035579;28;20049;-75
2022/06/14 12:50:29;;;;;;;11.70;4.38;;;18.50;99.90;;;;;;5035681;28;20369;-75
2022/06/14 12:53:00;;;;;;;17.50;5.45;;;18.50;99.90;;;;;;5035478;28;20411;-75
2022/06/14 12:55:26;;;;;;;17.30;5.15;;;18.60;99.90;;;;;;5035750;28;20061;-75
2022/06/14 12:58:11;;;;;;;13.38;5.63;;;18.70;99.90;;;;;;5053354;28;20512;-75
2022/06/14 13:00:54;;;;;;;12.25;5.80;;;18.70;99.90;;;;;;5053162;28;20559;-75
2022/06/14 13:03:45;;;;;;;11.52;4.95;;;18.90;99.90;;;;;;5035260;28;20053;-75
2022/06/14 13:06:29;;;;;;;13.35;5.22;;;19.00;99.90;;;;;;5053047;28;20037;-75
2022/06/14 13:09:10;;;;;;;17.05;5.63;;;18.90;99.90;;;;;;5053253;28;20055;-75
2022/06/14 13:12:00;;;;;;;13.32;5.30;;;18.80;99.90;;;;;;5053335;28;20060;-75
2022/06/14 13:14:32;;;;;;;14.00;5.45;;;18.90;99.90;;;;;;5035346;28;20481;-75
2022/06/14 13:17:04;;;;;;;23.55;6.93;;;18.90;99.90;;;;;;5035323;28;20551;-75
2022/06/14 13:19:43;;;;;;;18.00;6.05;;;18.80;99.90;;;;;;5053223;28;20052;-75
2022/06/14 13:22:23;;;;;;;13.57;5.18;;;18.90;99.90;;;;;;5035178;28;20094;-76
2022/06/14 13:25:22;;;;;;;13.25;5.35;;;18.90;99.90;;;;;;5053242;28;20037;-75
2022/06/14 13:28:17;;;;;;;14.80;5.40;;;18.90;99.90;;;;;;5052897;28;20071;-76
2022/06/14 13:31:13;;;;;;;16.67;5.65;;;18.90;99.90;;;;;;5035079;28;20488;-76
2022/06/14 13:33:56;;;;;;;17.90;5.68;;;18.90;99.90;;;;;;5052803;28;20488;-76
2022/06/14 13:36:45;;;;;;;17.52;5.78;;;18.80;99.90;;;;;;5035440;28;20045;-75
2022/06/14 13:39:36;;;;;;;14.73;5.00;;;18.90;99.90;;;;;;5035334;28;20111;-76
2022/06/14 13:42:26;;;;;;;15.25;6.15;;;18.90;99.90;;;;;;5034913;28;20400;-75
2022/06/14 13:45:00;;;;;;;19.90;5.82;;;19.00;99.90;;;;;;5014952;28;20175;-76
2022/06/14 13:47:33;;;;;;;17.33;7.00;;;19.10;99.90;;;;;;5035150;28;20045;-76
2022/06/14 13:50:13;;;;;;;14.13;6.05;;;19.20;99.90;;;;;;5035084;28;20063;-76
2022/06/14 13:52:55;;;;;;;14.10;5.65;;;19.20;99.90;;;;;;5035002;28;20064;-76
2022/06/14 13:55:45;;;;;;;17.08;6.63;;;19.20;99.90;;;;;;5053179;28;20052;-75
2022/06/14 13:58:28;;;;;;;14.07;6.10;;;19.20;99.90;;;;;;5056477;28;20049;-76
2022/06/14 14:01:07;;;;;;;17.83;7.10;;;19.20;99.90;;;;;;5056363;28;20480;-76